Disclaimer

Please do not use the information listed here in-flight or in-navigation, as they are not provided to us by the airports but are provided by volunteers, so they might be outdated.

Search


Regions


Airport information page

Radio informations:
Aerodrome flight information system (AFIS) - 119.2 MHz

Airport informations:
Latitude: 61° 35' 01.00" N
Longitude: 005° 01' 29.00" E
Elevation: 37 feet - 11 meters
Operating hours: NO OPERATING HOURS LISTED
Operating agency: Civil government, landing fees and diplomatic clearance may be required
Timezone: UTC+1(+2DT) - Last Sunday in March to last Sunday in October
Fuel: Jet A1, without icing nhibitor.

100/130 MIL Spec, low lead, aviation gasoline (BLUE)

Runway information:
07/25 - 3934 x 98 feet< - >1199 x 30 meters

Recent METARs:
ENFL 202320Z AUTO VRB02KT 9999NDV NCD 02/01 Q1028
ENFL 202350Z AUTO 07004KT 9999NDV NCD 01/M00 Q1028
ENFL 210020Z AUTO 07006KT 9999NDV NCD 02/01 Q1028

Airport on the map: